Time;durP1;ratioP1;P1;durP2;ratioP2;P2;SDS_P1;SDS_P2;PMS_P1;PMS_P2;Temp;Humidity;BMP_temperature;BMP_pressure;BME280_temperature;BME280_humidity;BME280_pressure;Samples;Min_cycle;Max_cycle;Signal;HPM_P1;HPM_P2
2021/09/24 00:02:25;;;;;;;;;;;;;;;19.27;74.91;101391.59;5056097;28;900;-58
2021/09/24 00:04:50;;;;;;;;;;;;;;;19.26;74.29;101387.19;5056157;28;1029;-58
2021/09/24 00:07:15;;;;;;;;;;;;;;;19.24;74.72;101387.34;5056275;28;1710;-59
2021/09/24 00:09:40;;;;;;;;;;;;;;;19.26;74.66;101389.91;5055953;28;1923;-58
2021/09/24 00:12:05;;;;;;;;;;;;;;;19.25;74.13;101390.88;5056212;28;1096;-59
2021/09/24 00:14:30;;;;;;;;;;;;;;;19.25;73.97;101385.47;5056387;28;890;-59
2021/09/24 00:16:55;;;;;;;;;;;;;;;19.26;74.47;101384.50;5057194;28;1898;-59
2021/09/24 00:19:20;;;;;;;;;;;;;;;19.23;74.55;101382.06;5056891;28;2027;-59
2021/09/24 00:21:45;;;;;;;;;;;;;;;19.22;74.07;101374.97;5057071;28;884;-60
2021/09/24 00:24:10;;;;;;;;;;;;;;;19.20;74.85;101376.94;5056800;28;1025;-60
2021/09/24 00:26:35;;;;;;;;;;;;;;;19.21;74.11;101386.75;5056855;28;1525;-59
2021/09/24 00:29:00;;;;;;;;;;;;;;;19.20;74.36;101374.25;5055417;28;2764;-59
2021/09/24 00:31:25;;;;;;;;;;;;;;;19.20;74.60;101379.66;5056966;28;1108;-62
2021/09/24 00:33:50;;;;;;;;;;;;;;;19.20;74.63;101374.25;5056920;28;1005;-60
2021/09/24 00:36:16;;;;;;;;;;;;;;;19.19;73.98;101377.94;5056755;28;1513;-60
2021/09/24 00:38:41;;;;;;;;;;;;;;;19.19;74.92;101383.34;5056091;28;1914;-60
2021/09/24 00:41:06;;;;;;;;;;;;;;;19.18;74.16;101371.69;5055038;28;1958;-60
2021/09/24 00:43:31;;;;;;;;;;;;;;;19.18;74.70;101376.22;5057074;28;1037;-61
2021/09/24 00:45:56;;;;;;;;;;;;;;;19.17;74.24;101371.84;5056529;28;1579;-62
2021/09/24 00:48:21;;;;;;;;;;;;;;;19.16;74.47;101367.44;5056329;28;1923;-62
2021/09/24 00:50:46;;;;;;;;;;;;;;;19.15;75.11;101361.19;5056509;28;943;-62
2021/09/24 00:53:11;;;;;;;;;;;;;;;19.14;74.23;101366.72;5056672;28;1005;-60
2021/09/24 00:55:37;;;;;;;;;;;;;;;19.13;75.13;101363.16;5054865;28;823;-61
2021/09/24 00:58:02;;;;;;;;;;;;;;;19.13;73.91;101362.31;5055918;28;1897;-61
2021/09/24 01:00:27;;;;;;;;;;;;;;;19.12;74.62;101366.00;5056122;28;1886;-60
2021/09/24 01:02:52;;;;;;;;;;;;;;;19.13;73.87;101359.63;5055836;28;898;-60
2021/09/24 01:05:17;;;;;;;;;;;;;;;19.12;75.16;101360.59;5056254;28;1405;-59
2021/09/24 01:07:42;;;;;;;;;;;;;;;19.12;74.68;101357.91;5056164;28;1918;-60
2021/09/24 01:10:07;;;;;;;;;;;;;;;19.11;74.54;101353.50;5056297;28;894;-59
2021/09/24 01:12:32;;;;;;;;;;;;;;;19.11;74.79;101350.78;5056125;28;795;-59
2021/09/24 01:14:57;;;;;;;;;;;;;;;19.08;74.44;101350.06;5056387;28;1749;-60
2021/09/24 01:17:22;;;;;;;;;;;;;;;19.08;74.49;101347.38;5055793;28;1947;-60
2021/09/24 01:19:47;;;;;;;;;;;;;;;19.07;74.65;101345.66;5055383;28;2180;-59
2021/09/24 01:22:13;;;;;;;;;;;;;;;19.08;74.25;101344.69;5054237;28;1018;-60
2021/09/24 01:24:38;;;;;;;;;;;;;;;19.06;75.15;101346.66;5055824;28;1564;-60
2021/09/24 01:27:03;;;;;;;;;;;;;;;19.07;74.06;101340.25;5055723;28;1013;-60
2021/09/24 01:29:28;;;;;;;;;;;;;;;19.07;74.15;101351.06;5055649;28;2012;-60
2021/09/24 01:31:53;;;;;;;;;;;;;;;19.06;75.15;101348.50;5055273;28;886;-60
2021/09/24 01:34:18;;;;;;;;;;;;;;;19.04;74.43;101343.25;5055466;28;1894;-60
2021/09/24 01:36:43;;;;;;;;;;;;;;;19.04;74.30;101342.41;5055734;28;1917;-61
2021/09/24 01:39:08;;;;;;;;;;;;;;;19.04;74.31;101347.78;5055405;28;1879;-58
2021/09/24 01:41:33;;;;;;;;;;;;;;;19.04;74.48;101345.09;5054207;28;1192;-58
2021/09/24 01:43:58;;;;;;;;;;;;;;;19.03;74.93;101346.09;5055698;28;1666;-59
2021/09/24 01:46:23;;;;;;;;;;;;;;;19.03;74.68;101340.69;5055476;28;862;-59
2021/09/24 01:48:48;;;;;;;;;;;;;;;19.02;74.75;101337.13;5054914;28;1921;-58
2021/09/24 01:51:13;;;;;;;;;;;;;;;19.00;75.18;101335.56;5055131;28;1020;-59
2021/09/24 01:53:39;;;;;;;;;;;;;;;19.00;74.29;101330.16;5055338;28;925;-59
2021/09/24 01:56:04;;;;;;;;;;;;;;;19.00;74.94;101327.47;5055342;28;826;-59
2021/09/24 01:58:29;;;;;;;;;;;;;;;18.99;74.57;101326.59;5055065;28;1982;-60
2021/09/24 02:00:54;;;;;;;;;;;;;;;19.00;74.57;101327.47;5055197;28;1897;-60
2021/09/24 02:03:19;;;;;;;;;;;;;;;18.99;74.91;101325.75;5055561;28;874;-60
2021/09/24 02:05:44;;;;;;;;;;;;;;;18.98;74.97;101324.94;5055034;28;1012;-61
2021/09/24 02:08:09;;;;;;;;;;;;;;;18.98;74.99;101327.63;5054682;28;1989;-61
2021/09/24 02:10:34;;;;;;;;;;;;;;;18.98;74.92;101316.81;5055662;28;1449;-61
2021/09/24 02:13:01;;;;;;;;;;;;;;;18.98;74.73;101316.81;5055033;28;1017;-62
2021/09/24 02:15:26;;;;;;;;;;;;;;;18.97;74.34;101320.53;5055169;28;842;-61
2021/09/24 02:17:51;;;;;;;;;;;;;;;18.95;75.07;101319.81;5054541;28;1962;-62
2021/09/24 02:20:16;;;;;;;;;;;;;;;18.97;74.37;101325.91;5055325;28;1084;-61
2021/09/24 02:22:41;;;;;;;;;;;;;;;18.97;74.88;101325.06;5054945;28;957;-61
2021/09/24 02:25:07;;;;;;;;;;;;;;;18.96;74.10;101317.97;5055177;28;1068;-60
2021/09/24 02:27:32;;;;;;;;;;;;;;;18.95;74.40;101311.69;5055500;28;1745;-60
2021/09/24 02:29:57;;;;;;;;;;;;;;;18.95;74.70;101322.50;5054756;28;2082;-60
2021/09/24 02:32:22;;;;;;;;;;;;;;;18.94;74.80;101317.25;5054969;28;1260;-60
2021/09/24 02:34:47;;;;;;;;;;;;;;;18.94;74.31;101317.25;5054832;28;831;-61
2021/09/24 02:37:12;;;;;;;;;;;;;;;18.93;74.94;101311.00;5054571;28;1921;-62
2021/09/24 02:39:37;;;;;;;;;;;;;;;18.93;74.15;101313.69;5054815;28;1901;-61
2021/09/24 02:42:02;;;;;;;;;;;;;;;18.93;74.38;101318.25;5054928;28;969;-60
2021/09/24 02:44:27;;;;;;;;;;;;;;;18.93;74.93;101313.69;5054991;28;1017;-61
2021/09/24 02:46:52;;;;;;;;;;;;;;;18.92;74.71;101320.09;5055263;28;1460;-61
2021/09/24 02:49:17;;;;;;;;;;;;;;;18.91;74.30;101318.38;5054462;28;1986;-61
2021/09/24 02:51:42;;;;;;;;;;;;;;;18.91;74.59;101321.06;5054855;28;1052;-60
2021/09/24 02:54:07;;;;;;;;;;;;;;;18.91;74.07;101312.97;5054724;28;906;-60
2021/09/24 02:56:33;;;;;;;;;;;;;;;18.90;74.61;101315.81;5054696;28;945;-60
2021/09/24 02:58:58;;;;;;;;;;;;;;;18.91;73.98;101314.81;5054313;28;2166;-60
2021/09/24 03:01:23;;;;;;;;;;;;;;;18.89;74.88;101317.66;5054550;28;1990;-60
2021/09/24 03:03:48;;;;;;;;;;;;;;;18.88;74.24;101313.25;5054585;28;868;-60
2021/09/24 03:06:13;;;;;;;;;;;;;;;18.89;74.59;101312.25;5054844;28;1068;-60
2021/09/24 03:08:38;;;;;;;;;;;;;;;18.89;74.07;101311.41;5054448;28;1904;-61
2021/09/24 03:11:03;;;;;;;;;;;;;;;18.87;75.10;101311.53;5054933;28;795;-60
2021/09/24 03:13:28;;;;;;;;;;;;;;;18.88;74.22;101315.94;5053474;28;1349;-60
2021/09/24 03:15:54;;;;;;;;;;;;;;;18.88;74.81;101307.84;5054356;28;894;-60
2021/09/24 03:18:20;;;;;;;;;;;;;;;18.87;74.28;101298.03;5053919;28;1942;-59
2021/09/24 03:20:45;;;;;;;;;;;;;;;18.87;74.70;101291.78;5054657;28;937;-59
2021/09/24 03:23:10;;;;;;;;;;;;;;;18.86;74.55;101285.53;5054115;28;944;-60
2021/09/24 03:25:35;;;;;;;;;;;;;;;18.86;74.06;101282.84;5056756;28;826;-61
2021/09/24 03:28:00;;;;;;;;;;;;;;;18.87;74.46;101283.69;5057000;28;1874;-58
2021/09/24 03:30:25;;;;;;;;;;;;;;;18.85;74.07;101286.53;5057823;28;914;-58
2021/09/24 03:32:50;;;;;;;;;;;;;;;18.84;74.94;101279.41;5058280;28;1635;-58
2021/09/24 03:35:15;;;;;;;;;;;;;;;18.85;74.37;101289.22;5057927;28;1008;-58
2021/09/24 03:37:40;;;;;;;;;;;;;;;18.85;73.86;101283.81;5057940;28;1959;-58
2021/09/24 03:40:05;;;;;;;;;;;;;;;18.85;74.36;101289.22;5057685;28;1949;-59
2021/09/24 03:42:30;;;;;;;;;;;;;;;18.85;74.42;101291.94;5057849;28;1686;-61
2021/09/24 03:44:55;;;;;;;;;;;;;;;18.84;74.49;101289.38;5057976;28;906;-61
2021/09/24 03:47:20;;;;;;;;;;;;;;;18.84;74.73;101289.38;5057814;28;820;-60
2021/09/24 03:49:45;;;;;;;;;;;;;;;18.84;74.18;101282.13;5057212;28;2083;-61
2021/09/24 03:52:10;;;;;;;;;;;;;;;18.82;74.04;101281.41;5056785;28;1049;-61
2021/09/24 03:54:36;;;;;;;;;;;;;;;18.83;74.62;101280.41;5057416;28;861;-61
2021/09/24 03:57:01;;;;;;;;;;;;;;;18.82;74.40;101289.50;5057747;28;1957;-61
2021/09/24 03:59:26;;;;;;;;;;;;;;;18.81;74.29;101282.41;5057236;28;1944;-61
2021/09/24 04:01:51;;;;;;;;;;;;;;;18.82;74.61;101286.81;5057513;28;1948;-59
2021/09/24 04:04:16;;;;;;;;;;;;;;;18.82;74.01;101283.25;5057275;28;1614;-59
2021/09/24 04:06:41;;;;;;;;;;;;;;;18.80;74.14;101283.41;5057247;28;819;-59
2021/09/24 04:09:06;;;;;;;;;;;;;;;18.80;74.25;101286.13;5057026;28;1895;-59
2021/09/24 04:11:31;;;;;;;;;;;;;;;18.81;74.52;101285.09;5057534;28;898;-58
2021/09/24 04:13:56;;;;;;;;;;;;;;;18.80;74.23;101280.72;5056891;28;1590;-58
2021/09/24 04:16:21;;;;;;;;;;;;;;;18.79;74.18;101276.31;5057371;28;1016;-59
2021/09/24 04:18:47;;;;;;;;;;;;;;;18.78;75.10;101276.44;5056437;28;2100;-59
2021/09/24 04:21:12;;;;;;;;;;;;;;;18.80;74.36;101282.56;5056906;28;964;-58
2021/09/24 04:23:37;;;;;;;;;;;;;;;18.79;73.81;101289.81;5056839;28;1740;-59
2021/09/24 04:26:02;;;;;;;;;;;;;;;18.79;74.04;101289.81;5057496;28;1033;-59
2021/09/24 04:28:27;;;;;;;;;;;;;;;18.78;74.50;101288.09;5056779;28;1946;-59
2021/09/24 04:30:52;;;;;;;;;;;;;;;18.78;73.86;101292.66;5055584;28;926;-59
2021/09/24 04:33:17;;;;;;;;;;;;;;;18.76;74.45;101292.78;5056910;28;1615;-59
2021/09/24 04:35:42;;;;;;;;;;;;;;;18.77;74.33;101288.25;5057126;28;989;-58
2021/09/24 04:38:07;;;;;;;;;;;;;;;18.77;74.64;101286.41;5056730;28;1989;-61
2021/09/24 04:40:32;;;;;;;;;;;;;;;18.83;73.19;101284.97;5055703;28;1855;-62
2021/09/24 04:42:57;;;;;;;;;;;;;;;18.91;73.11;101283.25;5056883;28;802;-60
2021/09/24 04:45:22;;;;;;;;;;;;;;;18.90;73.10;101278.84;5056626;28;1172;-61
2021/09/24 04:47:48;;;;;;;;;;;;;;;18.84;74.11;101276.72;5055882;28;1923;-60
2021/09/24 04:50:13;;;;;;;;;;;;;;;18.81;73.91;101279.69;5055837;28;1697;-60
2021/09/24 04:52:38;;;;;;;;;;;;;;;18.79;74.33;101278.16;5055432;28;1713;-60
2021/09/24 04:55:03;;;;;;;;;;;;;;;18.78;74.23;101287.25;5054738;28;1327;-61
2021/09/24 04:57:28;;;;;;;;;;;;;;;18.78;74.90;101288.09;5055345;28;1953;-61
2021/09/24 04:59:53;;;;;;;;;;;;;;;18.76;74.48;101289.25;5055506;28;1732;-61
2021/09/24 05:02:18;;;;;;;;;;;;;;;18.74;74.52;101281.28;5055314;28;2079;-61
2021/09/24 05:04:43;;;;;;;;;;;;;;;18.75;74.83;101285.69;5055554;28;1746;-61
2021/09/24 05:07:08;;;;;;;;;;;;;;;18.74;74.20;101281.28;5055349;28;1715;-62
2021/09/24 05:09:33;;;;;;;;;;;;;;;18.73;74.49;101275.03;5055319;28;1551;-62
2021/09/24 05:11:58;;;;;;;;;;;;;;;18.73;74.55;101274.16;5055417;28;1528;-62
2021/09/24 05:14:24;;;;;;;;;;;;;;;18.73;74.36;101266.06;5055596;28;1655;-62
2021/09/24 05:16:49;;;;;;;;;;;;;;;18.73;73.96;101263.38;5055658;28;1952;-62
2021/09/24 05:19:14;;;;;;;;;;;;;;;18.70;73.92;101261.81;5055321;28;1993;-62
2021/09/24 05:21:39;;;;;;;;;;;;;;;18.70;74.05;101259.09;5055702;28;1651;-62
2021/09/24 05:24:04;;;;;;;;;;;;;;;18.70;73.93;101266.34;5055618;28;1073;-61
2021/09/24 05:26:29;;;;;;;;;;;;;;;18.69;74.28;101268.19;5056509;28;832;-61
2021/09/24 05:28:55;;;;;;;;;;;;;;;18.69;73.78;101256.53;5055662;28;2073;-61
2021/09/24 05:31:20;;;;;;;;;;;;;;;18.69;73.94;101261.94;5055263;28;1663;-61
2021/09/24 05:33:45;;;;;;;;;;;;;;;18.68;73.99;101260.22;5054270;28;1778;-61
2021/09/24 05:36:11;;;;;;;;;;;;;;;18.69;73.80;101256.53;5054817;28;1593;-62
2021/09/24 05:38:36;;;;;;;;;;;;;;;18.69;73.52;101261.94;5055046;28;1971;-61
2021/09/24 05:41:01;;;;;;;;;;;;;;;18.68;74.02;101255.69;5053849;28;1451;-62
2021/09/24 05:43:26;;;;;;;;;;;;;;;18.67;74.17;101255.81;5054644;28;1636;-61
2021/09/24 05:45:51;;;;;;;;;;;;;;;18.69;73.61;101256.53;5053837;28;1671;-62
2021/09/24 05:48:16;;;;;;;;;;;;;;;18.69;73.75;101259.25;5053352;28;1438;-61
2021/09/24 05:50:41;;;;;;;;;;;;;;;18.73;73.96;101268.78;5054348;28;1837;-61
2021/09/24 05:53:07;;;;;;;;;;;;;;;18.81;74.20;101271.59;5055081;28;1791;-65
2021/09/24 05:55:32;;;;;;;;;;;;;;;18.85;74.88;101264.06;5054933;28;1822;-66
2021/09/24 05:57:57;;;;;;;;;;;;;;;18.86;74.71;101261.22;5054860;28;1949;-67
2021/09/24 06:00:22;;;;;;;;;;;;;;;18.85;74.41;101270.31;5053955;28;1914;-67
2021/09/24 06:02:48;;;;;;;;;;;;;;;18.84;73.89;101262.34;5055200;28;1969;-67
2021/09/24 06:05:13;;;;;;;;;;;;;;;18.83;75.07;101266.06;5055088;28;1523;-67
2021/09/24 06:07:38;;;;;;;;;;;;;;;18.82;73.73;101264.34;5054822;28;2023;-67
2021/09/24 06:10:03;;;;;;;;;;;;;;;18.81;74.60;101268.06;5051619;28;1679;-67
2021/09/24 06:12:28;;;;;;;;;;;;;;;18.76;74.34;101267.63;5053558;28;1895;-67
2021/09/24 06:14:57;;;;;;;;;;;;;;;18.75;75.13;101269.47;5054799;28;1887;-67
2021/09/24 06:17:22;;;;;;;;;;;;;;;18.73;75.21;101275.03;5055197;28;1945;-67
2021/09/24 06:19:47;;;;;;;;;;;;;;;18.72;75.55;101276.00;5054869;28;2017;-67
2021/09/24 06:22:12;;;;;;;;;;;;;;;18.73;75.12;101276.88;5054760;28;1930;-67
2021/09/24 06:24:37;;;;;;;;;;;;;;;18.72;75.32;101278.72;5054404;28;2037;-67
2021/09/24 06:27:02;;;;;;;;;;;;;;;18.71;74.99;101279.72;5054308;28;1664;-67
2021/09/24 06:29:27;;;;;;;;;;;;;;;18.71;75.48;101268.91;5054467;28;819;-67
2021/09/24 06:31:52;;;;;;;;;;;;;;;18.70;75.29;101269.91;5054274;28;2037;-67
2021/09/24 06:34:17;;;;;;;;;;;;;;;18.71;75.78;101268.06;5054407;28;1503;-67
2021/09/24 06:36:42;;;;;;;;;;;;;;;18.70;75.57;101266.34;5054339;28;1617;-67
2021/09/24 06:39:07;;;;;;;;;;;;;;;18.70;74.91;101269.91;5054041;28;1975;-67
2021/09/24 06:41:32;;;;;;;;;;;;;;;18.71;74.78;101268.06;5053186;28;1538;-67
2021/09/24 06:43:58;;;;;;;;;;;;;;;18.70;74.58;101269.91;5053198;28;2311;-67
2021/09/24 06:46:23;;;;;;;;;;;;;;;18.69;75.06;101273.59;5054466;28;1902;-67
2021/09/24 06:48:48;;;;;;;;;;;;;;;18.70;75.20;101271.75;5054869;28;1880;-67
2021/09/24 06:51:13;;;;;;;;;;;;;;;18.70;75.35;101274.44;5054018;28;2601;-66
2021/09/24 06:53:38;;;;;;;;;;;;;;;18.69;74.71;101275.44;5053679;28;1902;-65
2021/09/24 06:56:03;;;;;;;;;;;;;;;18.69;75.59;101270.91;5054134;28;1940;-65
2021/09/24 06:58:28;;;;;;;;;;;;;;;18.69;75.04;101273.59;5054095;28;1889;-65
2021/09/24 07:00:53;;;;;;;;;;;;;;;18.68;74.80;101271.88;5056521;28;1649;-65
2021/09/24 07:03:18;;;;;;;;;;;;;;;18.67;75.14;101280.97;5057453;28;1916;-66
2021/09/24 07:05:44;;;;;;;;;;;;;;;18.68;74.75;101271.03;5058014;28;1507;-65
2021/09/24 07:08:09;;;;;;;;;;;;;;;18.67;74.93;101270.19;5057516;28;1472;-66
2021/09/24 07:10:34;;;;;;;;;;;;;;;18.66;75.27;101279.28;5057655;28;1748;-65
2021/09/24 07:12:59;;;;;;;;;;;;;;;18.68;74.89;101279.13;5056372;28;1889;-66
2021/09/24 07:15:24;;;;;;;;;;;;;;;18.68;74.97;101282.69;5057747;28;1616;-66
2021/09/24 07:17:49;;;;;;;;;;;;;;;18.67;74.84;101280.13;5057620;28;1910;-65
2021/09/24 07:20:14;;;;;;;;;;;;;;;18.67;74.71;101280.13;5056175;28;1555;-66
2021/09/24 07:22:39;;;;;;;;;;;;;;;18.67;74.56;101280.13;5057389;28;1661;-65
2021/09/24 07:25:04;;;;;;;;;;;;;;;18.66;74.96;101275.72;5057474;28;1606;-66
2021/09/24 07:27:29;;;;;;;;;;;;;;;18.65;74.97;101274.88;5057487;28;1519;-66
2021/09/24 07:29:55;;;;;;;;;;;;;;;18.66;74.75;101275.72;5057441;28;1298;-65
2021/09/24 07:32:20;;;;;;;;;;;;;;;18.66;74.85;101281.13;5057217;28;1796;-65
2021/09/24 07:34:45;;;;;;;;;;;;;;;18.65;74.41;101276.72;5057380;28;1012;-65
2021/09/24 07:37:10;;;;;;;;;;;;;;;18.65;75.19;101277.56;5057532;28;1948;-65
2021/09/24 07:39:35;;;;;;;;;;;;;;;18.65;74.78;101284.81;5055752;28;1547;-66
2021/09/24 07:42:00;;;;;;;;;;;;;;;18.65;74.10;101287.50;5056658;28;1853;-66
2021/09/24 07:44:25;;;;;;;;;;;;;;;18.65;74.88;101276.72;5057170;28;807;-65
2021/09/24 07:46:51;;;;;;;;;;;;;;;18.64;74.55;101270.47;5056956;28;1567;-65
2021/09/24 07:49:16;;;;;;;;;;;;;;;18.65;74.83;101269.47;5057850;28;815;-66
2021/09/24 07:51:41;;;;;;;;;;;;;;;18.65;75.46;101265.91;5057021;28;1539;-65
2021/09/24 07:54:06;;;;;;;;;;;;;;;18.64;74.91;101269.59;5057008;28;1562;-65
2021/09/24 07:56:31;;;;;;;;;;;;;;;18.63;74.99;101276.84;5056826;28;1705;-66
2021/09/24 07:58:56;;;;;;;;;;;;;;;18.63;75.35;101276.03;5055883;28;1976;-66
2021/09/24 08:01:24;;;;;;;;;;;;;;;18.64;74.40;101288.50;5056740;28;1508;-65
2021/09/24 08:03:49;;;;;;;;;;;;;;;18.64;74.90;101281.25;5056942;28;1919;-66
2021/09/24 08:06:16;;;;;;;;;;;;;;;18.64;75.03;101275.00;5056182;28;1500;-66
2021/09/24 08:08:41;;;;;;;;;;;;;;;18.65;74.80;101279.41;5054781;28;1800;-66
2021/09/24 08:11:06;;;;;;;;;;;;;;;18.65;75.14;101274.00;5055943;28;1591;-66
2021/09/24 08:13:31;;;;;;;;;;;;;;;18.64;75.15;101269.59;5056521;28;1492;-66
2021/09/24 08:15:56;;;;;;;;;;;;;;;18.64;74.54;101275.00;5056412;28;1835;-65
2021/09/24 08:18:21;;;;;;;;;;;;;;;18.64;74.70;101270.47;5056924;28;1917;-65
2021/09/24 08:20:46;;;;;;;;;;;;;;;18.64;75.02;101275.00;5056012;28;1547;-65
2021/09/24 08:23:11;;;;;;;;;;;;;;;18.64;75.33;101270.47;5056462;28;1451;-66
2021/09/24 08:25:36;;;;;;;;;;;;;;;18.64;75.56;101269.59;5056302;28;1635;-66
2021/09/24 08:28:01;;;;;;;;;;;;;;;18.65;75.27;101274.88;5056272;28;1748;-67
2021/09/24 08:30:28;;;;;;;;;;;;;;;18.65;74.72;101265.91;5056500;28;1699;-66
2021/09/24 08:32:53;;;;;;;;;;;;;;;18.66;75.27;101271.16;5056437;28;764;-66
2021/09/24 08:35:18;;;;;;;;;;;;;;;18.66;74.83;101263.06;5054984;28;1332;-65
2021/09/24 08:37:47;;;;;;;;;;;;;;;18.66;75.67;101271.16;5056437;28;1906;-65
2021/09/24 08:40:12;;;;;;;;;;;;;;;18.67;74.92;101272.03;5056148;28;1478;-66
2021/09/24 08:42:38;;;;;;;;;;;;;;;18.67;75.40;101280.13;5055516;28;1650;-65
2021/09/24 08:45:03;;;;;;;;;;;;;;;18.68;74.93;101271.03;5055708;28;1642;-65
2021/09/24 08:47:28;;;;;;;;;;;;;;;18.68;74.29;101277.28;5056149;28;1353;-66
2021/09/24 08:49:53;;;;;;;;;;;;;;;18.70;74.97;101282.53;5055932;28;1543;-65
2021/09/24 08:52:18;;;;;;;;;;;;;;;18.70;74.72;101279.84;5055682;28;1859;-65
2021/09/24 08:54:43;;;;;;;;;;;;;;;18.72;74.35;101278.72;5055611;28;1596;-65
2021/09/24 08:57:08;;;;;;;;;;;;;;;18.71;74.01;101281.56;5055465;28;1959;-66
2021/09/24 08:59:33;;;;;;;;;;;;;;;18.72;73.92;101281.41;5055808;28;1360;-65
2021/09/24 09:01:58;;;;;;;;;;;;;;;18.74;74.92;101281.28;5055422;28;1560;-66
2021/09/24 09:04:24;;;;;;;;;;;;;;;18.73;74.58;101282.28;5054943;28;1459;-66
2021/09/24 09:06:49;;;;;;;;;;;;;;;18.76;74.72;101279.28;5054485;28;1684;-65
2021/09/24 09:09:14;;;;;;;;;;;;;;;18.80;73.06;101272.63;5055247;28;1546;-65
2021/09/24 09:11:39;;;;;;;;;;;;;;;18.83;73.21;101279.56;5055426;28;1380;-65
2021/09/24 09:14:04;;;;;;;;;;;;;;;18.85;72.99;101267.63;5054280;28;1656;-65
2021/09/24 09:16:29;;;;;;;;;;;;;;;18.86;72.81;101269.31;5055224;28;1566;-65
2021/09/24 09:18:54;;;;;;;;;;;;;;;18.87;72.96;101268.34;5054063;28;1918;-65
2021/09/24 09:21:19;;;;;;;;;;;;;;;18.89;72.62;101258.25;5054499;28;1830;-65
2021/09/24 09:23:47;;;;;;;;;;;;;;;18.89;72.76;101266.34;5054714;28;1618;-65
2021/09/24 09:26:13;;;;;;;;;;;;;;;18.92;72.53;101263.38;5055528;28;1306;-66
2021/09/24 09:28:38;;;;;;;;;;;;;;;18.93;72.84;101262.38;5054019;28;1259;-65
2021/09/24 09:31:03;;;;;;;;;;;;;;;18.95;72.37;101257.69;5054987;28;1731;-65
2021/09/24 09:33:28;;;;;;;;;;;;;;;18.97;72.75;101255.69;5053603;28;1565;-65
2021/09/24 09:35:53;;;;;;;;;;;;;;;19.00;72.20;101251.81;5053523;28;1393;-66
2021/09/24 09:38:18;;;;;;;;;;;;;;;19.00;72.73;101247.28;5055023;28;1906;-66
2021/09/24 09:40:43;;;;;;;;;;;;;;;19.01;72.13;101245.44;5054782;28;1614;-66
2021/09/24 09:43:09;;;;;;;;;;;;;;;19.01;71.90;101250.84;5055031;28;1007;-66
2021/09/24 09:45:34;;;;;;;;;;;;;;;19.02;72.65;101249.84;5053655;28;1614;-66
2021/09/24 09:47:59;;;;;;;;;;;;;;;19.04;72.06;101250.53;5055224;28;1400;-66
2021/09/24 09:50:24;;;;;;;;;;;;;;;19.03;72.71;101244.28;5055088;28;1681;-66
2021/09/24 09:52:49;;;;;;;;;;;;;;;19.07;72.03;101239.47;5054713;28;1368;-65
2021/09/24 09:55:14;;;;;;;;;;;;;;;19.08;72.88;101244.72;5054491;28;1494;-65
2021/09/24 09:57:39;;;;;;;;;;;;;;;19.09;72.47;101242.88;5054395;28;1882;-66
2021/09/24 10:00:04;;;;;;;;;;;;;;;19.10;72.56;101244.56;5054563;28;1857;-65
2021/09/24 10:02:29;;;;;;;;;;;;;;;19.10;72.64;101239.19;5054979;28;1002;-66
2021/09/24 10:04:54;;;;;;;;;;;;;;;19.13;71.91;101238.03;5054418;28;1538;-66
2021/09/24 10:07:19;;;;;;;;;;;;;;;19.12;72.40;101234.47;5054400;28;1396;-66
2021/09/24 10:09:44;;;;;;;;;;;;;;;19.11;71.85;101238.19;5053915;28;1801;-65
2021/09/24 10:12:09;;;;;;;;;;;;;;;19.14;72.73;101227.09;5053919;28;1439;-65
2021/09/24 10:14:35;;;;;;;;;;;;;;;19.16;72.79;101232.34;5054036;28;1269;-66
2021/09/24 10:17:00;;;;;;;;;;;;;;;19.17;71.84;101229.47;5053827;28;1985;-65
2021/09/24 10:19:25;;;;;;;;;;;;;;;19.18;72.28;101216.81;5054170;28;1744;-65
2021/09/24 10:21:50;;;;;;;;;;;;;;;19.19;72.64;101226.63;5054319;28;1544;-66
2021/09/24 10:24:15;;;;;;;;;;;;;;;19.21;72.67;101228.19;5054988;28;1017;-65
2021/09/24 10:26:40;;;;;;;;;;;;;;;19.22;72.44;101226.34;5054714;28;1776;-65
2021/09/24 10:29:05;;;;;;;;;;;;;;;19.24;72.17;101224.34;5055291;28;1033;-66
2021/09/24 10:31:30;;;;;;;;;;;;;;;19.23;71.76;101218.09;5054939;28;1815;-66
2021/09/24 10:33:56;;;;;;;;;;;;;;;19.26;71.93;101219.66;5056226;28;944;-66
2021/09/24 10:36:21;;;;;;;;;;;;;;;19.24;71.54;101225.19;5058218;28;1781;-66
2021/09/24 10:38:46;;;;;;;;;;;;;;;19.28;71.87;101231.16;5058593;28;1894;-65
2021/09/24 10:41:13;;;;;;;;;;;;;;;19.28;71.87;101225.75;5058467;28;1571;-66
2021/09/24 10:43:38;;;;;;;;;;;;;;;19.29;71.91;101219.38;5056905;28;1988;-66
2021/09/24 10:46:03;;;;;;;;;;;;;;;19.31;72.04;101217.38;5058596;28;1710;-68
2021/09/24 10:48:28;;;;;;;;;;;;;;;19.32;71.18;101221.78;5058418;28;1632;-66
2021/09/24 10:50:54;;;;;;;;;;;;;;;19.32;71.82;101221.78;5058420;28;1002;-66
2021/09/24 10:53:19;;;;;;;;;;;;;;;19.34;72.48;101225.19;5058430;28;786;-65
2021/09/24 10:55:44;;;;;;;;;;;;;;;19.35;71.38;101222.31;5057016;28;1977;-65
2021/09/24 10:58:09;;;;;;;;;;;;;;;19.35;71.41;101222.31;5056612;28;1945;-65
2021/09/24 11:00:34;;;;;;;;;;;;;;;19.36;71.35;101213.19;5058421;28;1345;-65
2021/09/24 11:02:59;;;;;;;;;;;;;;;19.38;70.99;101230.13;5057983;28;1594;-67
2021/09/24 11:05:24;;;;;;;;;;;;;;;19.35;70.92;101219.59;5058036;28;1360;-66
2021/09/24 11:07:49;;;;;;;;;;;;;;;19.33;70.42;101226.19;5057606;28;1635;-65
2021/09/24 11:10:14;;;;;;;;;;;;;;;19.34;71.57;101225.19;5058038;28;953;-66
2021/09/24 11:12:41;;;;;;;;;;;;;;;19.33;71.74;101212.66;5057948;28;1661;-66
2021/09/24 11:15:06;;;;;;;;;;;;;;;19.33;71.11;101215.38;5058006;28;1329;-66
2021/09/24 11:17:31;;;;;;;;;;;;;;;19.32;70.40;101206.41;5056212;28;1993;-66
2021/09/24 11:19:56;;;;;;;;;;;;;;;19.33;71.39;101213.53;5057779;28;1740;-66
2021/09/24 11:22:21;;;;;;;;;;;;;;;19.36;70.74;101202.41;5057607;28;880;-66
2021/09/24 11:24:46;;;;;;;;;;;;;;;19.39;71.86;101212.06;5057103;28;1830;-66
2021/09/24 11:27:12;;;;;;;;;;;;;;;19.41;71.44;101204.66;5057294;28;1486;-66
2021/09/24 11:29:37;;;;;;;;;;;;;;;19.43;70.71;101210.78;5057569;28;795;-65
2021/09/24 11:32:02;;;;;;;;;;;;;;;19.46;70.44;101198.81;5057329;28;1428;-65
2021/09/24 11:34:27;;;;;;;;;;;;;;;19.45;71.24;101189.84;5057016;28;1353;-66
2021/09/24 11:36:52;;;;;;;;;;;;;;;19.47;70.81;101192.41;5057251;28;1385;-66
2021/09/24 11:39:17;;;;;;;;;;;;;;;19.47;71.76;101197.81;5057526;28;1894;-66
2021/09/24 11:41:42;;;;;;;;;;;;;;;19.48;70.35;101200.38;5057117;28;1427;-66
2021/09/24 11:44:07;;;;;;;;;;;;;;;19.47;69.98;101184.31;5057457;28;1076;-66
2021/09/24 11:46:32;;;;;;;;;;;;;;;19.45;70.40;101183.59;5056361;28;1615;-66
2021/09/24 11:48:57;;;;;;;;;;;;;;;19.43;69.77;101181.03;5057417;28;1549;-66
2021/09/24 11:51:22;;;;;;;;;;;;;;;19.44;70.72;101193.56;5057147;28;1360;-66
2021/09/24 11:53:47;;;;;;;;;;;;;;;19.45;70.09;101183.59;5055689;28;1586;-66
2021/09/24 11:56:13;;;;;;;;;;;;;;;19.43;70.43;101186.44;5057037;28;1389;-66
2021/09/24 11:58:38;;;;;;;;;;;;;;;19.43;70.80;101172.94;5056753;28;1897;-66
2021/09/24 12:01:03;;;;;;;;;;;;;;;19.44;70.13;101180.03;5056854;28;1423;-66
2021/09/24 12:03:28;;;;;;;;;;;;;;;19.47;69.87;101182.47;5056829;28;1601;-66
2021/09/24 12:05:53;;;;;;;;;;;;;;;19.47;70.02;101182.47;5056773;28;1537;-66
2021/09/24 12:08:18;;;;;;;;;;;;;;;19.48;69.09;101180.59;5056521;28;1591;-66
2021/09/24 12:10:43;;;;;;;;;;;;;;;19.48;69.15;101167.09;5055969;28;1357;-66
2021/09/24 12:13:08;;;;;;;;;;;;;;;19.48;69.14;101167.94;5056462;28;1462;-66
2021/09/24 12:15:33;;;;;;;;;;;;;;;19.50;70.11;101175.94;5055440;28;1673;-66
2021/09/24 12:17:59;;;;;;;;;;;;;;;19.50;69.76;101182.19;5056483;28;1902;-66
2021/09/24 12:20:24;;;;;;;;;;;;;;;19.51;68.65;101173.09;5056475;28;1357;-66
2021/09/24 12:22:49;;;;;;;;;;;;;;;19.52;69.73;101174.78;5056016;28;1355;-66
2021/09/24 12:25:14;;;;;;;;;;;;;;;19.51;68.83;101167.69;5056392;28;1681;-66
2021/09/24 12:27:39;;;;;;;;;;;;;;;19.52;69.80;101173.94;5056327;28;1450;-67
2021/09/24 12:30:04;;;;;;;;;;;;;;;19.51;70.16;101173.09;5056423;28;1621;-66
2021/09/24 12:32:29;;;;;;;;;;;;;;;19.51;69.86;101177.66;5055093;28;1603;-66
2021/09/24 12:34:54;;;;;;;;;;;;;;;19.51;68.61;101185.75;5055817;28;1554;-66
2021/09/24 12:37:20;;;;;;;;;;;;;;;19.50;67.84;101176.78;5055957;28;1898;-66